createdAt,value
2023-05-15T00:01:49.176Z,3.83
2023-05-15T00:04:21.698Z,3.90
2023-05-15T00:06:54.317Z,3.75
2023-05-15T00:09:29.876Z,5.05
2023-05-15T00:12:04.026Z,5.00
2023-05-15T00:14:36.981Z,4.60
2023-05-15T00:17:14.988Z,4.88
2023-05-15T00:19:46.950Z,4.53
2023-05-15T00:22:18.409Z,6.88
2023-05-15T00:24:52.263Z,3.60
2023-05-15T00:27:20.852Z,3.58
2023-05-15T00:29:55.764Z,4.75
2023-05-15T00:32:24.838Z,2.88
2023-05-15T00:34:53.764Z,4.75
2023-05-15T00:37:27.127Z,3.72
2023-05-15T00:40:00.169Z,3.38
2023-05-15T00:42:33.115Z,3.13
2023-05-15T00:45:05.694Z,2.50
2023-05-15T00:47:43.533Z,2.53
2023-05-15T00:50:16.093Z,2.65
2023-05-15T00:52:48.267Z,3.10
2023-05-15T00:55:21.018Z,3.17
2023-05-15T00:57:57.279Z,3.42
2023-05-15T01:00:26.664Z,3.83
2023-05-15T01:02:57.709Z,3.30
2023-05-15T01:05:34.534Z,2.70
2023-05-15T01:08:44.355Z,4.03
2023-05-15T01:11:19.531Z,2.92
2023-05-15T01:13:52.561Z,3.60
2023-05-15T01:16:29.425Z,2.70
2023-05-15T01:19:07.043Z,4.93
2023-05-15T01:21:41.088Z,3.92
2023-05-15T01:24:35.702Z,3.33
2023-05-15T01:27:13.903Z,3.10
2023-05-15T01:29:51.869Z,3.85
2023-05-15T01:33:04.926Z,3.80
2023-05-15T01:36:11.959Z,2.92
2023-05-15T01:38:50.489Z,3.08
2023-05-15T01:41:45.045Z,4.38
2023-05-15T01:44:29.987Z,3.00
2023-05-15T01:47:02.631Z,4.72
2023-05-15T01:49:33.210Z,2.90
2023-05-15T01:52:32.332Z,3.15
2023-05-15T01:55:06.378Z,2.72
2023-05-15T01:57:36.740Z,2.50
2023-05-15T02:00:12.917Z,3.30
2023-05-15T02:02:50.198Z,3.45
2023-05-15T02:05:24.960Z,2.78
2023-05-15T02:07:59.608Z,2.67
2023-05-15T02:10:30.297Z,2.40
2023-05-15T02:13:02.755Z,2.50
2023-05-15T02:15:34.186Z,3.47
2023-05-15T02:18:09.870Z,3.05
2023-05-15T02:20:52.714Z,2.58
2023-05-15T02:23:28.136Z,1.88
2023-05-15T02:26:16.491Z,2.60
2023-05-15T02:28:57.950Z,2.92
2023-05-15T02:32:02.560Z,1.80
2023-05-15T02:34:57.290Z,4.38
2023-05-15T02:37:32.750Z,2.17
2023-05-15T02:40:04.220Z,2.17
2023-05-15T02:42:34.576Z,2.15
2023-05-15T02:45:06.160Z,2.00
2023-05-15T02:47:37.841Z,2.33
2023-05-15T02:50:12.215Z,2.70
2023-05-15T02:52:46.099Z,3.40
2023-05-15T02:55:17.079Z,1.70
2023-05-15T02:57:46.168Z,2.60
2023-05-15T03:00:17.840Z,2.20
2023-05-15T03:02:46.265Z,2.67
2023-05-15T03:05:20.402Z,2.83
2023-05-15T03:07:51.403Z,4.00
2023-05-15T03:10:23.878Z,2.15
2023-05-15T03:12:59.096Z,2.50
2023-05-15T03:15:27.858Z,2.15
2023-05-15T03:18:00.516Z,1.80
2023-05-15T03:20:32.780Z,1.85
2023-05-15T03:23:05.739Z,1.88
2023-05-15T03:25:38.358Z,3.30
2023-05-15T03:28:12.677Z,1.73
2023-05-15T03:30:44.887Z,1.25
2023-05-15T03:33:13.461Z,2.10
2023-05-15T03:35:42.266Z,2.20
2023-05-15T03:38:12.982Z,2.78
2023-05-15T03:40:44.646Z,1.42
2023-05-15T03:43:19.120Z,1.83
2023-05-15T03:45:50.326Z,2.05
2023-05-15T03:48:22.285Z,3.70
2023-05-15T03:50:54.175Z,2.30
2023-05-15T03:53:34.583Z,1.77
2023-05-15T03:56:14.112Z,2.28
2023-05-15T03:58:44.600Z,1.48
2023-05-15T04:01:20.148Z,1.85
2023-05-15T04:03:51.496Z,1.30
2023-05-15T04:06:23.167Z,1.77
2023-05-15T04:08:56.220Z,2.38
2023-05-15T04:12:01.169Z,2.88
2023-05-15T04:14:34.673Z,2.28
2023-05-15T04:17:07.404Z,3.38
2023-05-15T04:19:51.696Z,5.03
2023-05-15T04:22:32.224Z,2.92
2023-05-15T04:25:01.579Z,1.67
2023-05-15T04:27:36.361Z,1.90
2023-05-15T04:32:40.483Z,3.72
2023-05-15T04:35:11.935Z,3.92
2023-05-15T04:37:43.564Z,2.63
2023-05-15T04:40:17.780Z,2.55
2023-05-15T04:42:47.341Z,2.20
2023-05-15T04:45:19.164Z,4.18
2023-05-15T04:47:47.713Z,4.50
2023-05-15T04:50:20.968Z,6.65
2023-05-15T04:52:49.921Z,5.10
2023-05-15T04:55:22.169Z,9.52
2023-05-15T04:58:01.851Z,3.95
2023-05-15T05:00:38.770Z,4.07
2023-05-15T05:03:12.740Z,5.65
2023-05-15T05:05:44.704Z,4.00
2023-05-15T05:08:17.046Z,4.28
2023-05-15T05:10:46.542Z,5.47
2023-05-15T05:13:15.036Z,3.95
2023-05-15T05:15:50.263Z,4.97
2023-05-15T05:18:36.559Z,6.10
2023-05-15T05:21:06.374Z,4.70
2023-05-15T05:26:31.142Z,31.17
2023-05-15T05:29:00.654Z,15.63
2023-05-15T05:31:28.857Z,19.25
2023-05-15T05:33:57.030Z,15.30
2023-05-15T05:36:25.251Z,15.13
2023-05-15T05:38:53.966Z,12.05
2023-05-15T05:41:35.458Z,10.15
2023-05-15T05:44:06.955Z,9.10
2023-05-15T05:47:09.251Z,6.97
2023-05-15T05:49:43.480Z,5.30
2023-05-15T05:52:22.276Z,4.78
2023-05-15T05:55:24.406Z,4.05
2023-05-15T05:59:07.293Z,5.53
2023-05-15T06:01:53.617Z,5.18
2023-05-15T06:04:40.504Z,6.75
2023-05-15T06:07:19.570Z,3.58
2023-05-15T06:09:53.595Z,3.25
2023-05-15T06:12:39.872Z,3.90
2023-05-15T06:15:18.226Z,2.55
2023-05-15T06:18:05.961Z,3.90
2023-05-15T06:23:33.940Z,6.72
2023-05-15T06:26:02.650Z,4.15
2023-05-15T06:28:31.141Z,5.03
2023-05-15T06:30:59.856Z,4.53
2023-05-15T06:33:27.841Z,4.68
2023-05-15T06:35:58.086Z,4.72
2023-05-15T06:38:28.253Z,4.65
2023-05-15T06:40:56.627Z,5.40
2023-05-15T06:43:25.379Z,3.20
2023-05-15T06:45:53.378Z,3.55
2023-05-15T06:48:21.599Z,4.22
2023-05-15T06:50:49.844Z,4.20
2023-05-15T06:53:18.912Z,6.35
2023-05-15T06:55:47.581Z,6.15
2023-05-15T06:58:19.007Z,8.77
2023-05-15T07:00:48.533Z,5.13
2023-05-15T07:03:17.037Z,7.97
2023-05-15T07:05:48.687Z,6.57
2023-05-15T07:08:17.195Z,6.22
2023-05-15T07:10:45.879Z,5.68
2023-05-15T07:13:25.507Z,5.55
2023-05-15T07:18:21.795Z,7.40
2023-05-15T07:20:50.027Z,6.93
2023-05-15T07:23:18.285Z,4.07
2023-05-15T07:25:47.033Z,3.80
2023-05-15T07:28:34.705Z,7.88
2023-05-15T07:31:03.981Z,6.03
2023-05-15T07:33:32.606Z,4.22
2023-05-15T07:36:03.126Z,5.82
2023-05-15T07:38:32.753Z,7.10
2023-05-15T07:41:03.340Z,6.00
2023-05-15T07:43:34.141Z,5.47
2023-05-15T07:46:02.533Z,5.00
2023-05-15T07:48:31.357Z,3.92
2023-05-15T07:50:59.921Z,4.50
2023-05-15T07:53:28.707Z,3.83
2023-05-15T07:55:57.306Z,17.67
2023-05-15T07:58:26.390Z,10.63
2023-05-15T08:00:54.807Z,7.07
2023-05-15T08:03:25.770Z,7.35
2023-05-15T08:05:58.515Z,4.57
2023-05-15T08:08:30.405Z,5.13
2023-05-15T08:10:59.080Z,5.90
2023-05-15T08:13:28.090Z,4.65
2023-05-15T08:15:58.857Z,4.22
2023-05-15T08:18:27.708Z,5.60
2023-05-15T08:20:56.245Z,4.50
2023-05-15T08:23:32.207Z,7.28
2023-05-15T08:26:09.274Z,9.48
2023-05-15T08:29:03.415Z,6.25
2023-05-15T08:31:31.965Z,6.45
2023-05-15T08:34:00.699Z,7.95
2023-05-15T08:36:31.948Z,7.47
2023-05-15T08:39:02.920Z,7.85
2023-05-15T08:41:40.638Z,10.38
2023-05-15T08:44:13.510Z,11.63
2023-05-15T08:46:42.313Z,10.27
2023-05-15T08:49:20.308Z,10.02
2023-05-15T08:51:52.900Z,9.25
2023-05-15T08:54:26.557Z,8.23
2023-05-15T08:56:58.196Z,7.70
2023-05-15T08:59:27.245Z,7.05
2023-05-15T09:01:56.661Z,5.75
2023-05-15T09:04:28.733Z,7.35
2023-05-15T09:07:01.269Z,5.80
2023-05-15T09:09:32.877Z,6.18
2023-05-15T09:12:05.608Z,8.93
2023-05-15T09:14:34.129Z,8.25
2023-05-15T09:17:02.727Z,9.63
2023-05-15T09:19:39.457Z,7.43
2023-05-15T09:22:24.439Z,9.10
2023-05-15T09:24:53.615Z,8.18
2023-05-15T09:27:27.519Z,6.70
2023-05-15T09:29:58.353Z,8.60
2023-05-15T09:32:30.704Z,7.78
2023-05-15T09:35:04.872Z,7.45
2023-05-15T09:37:37.531Z,5.38
2023-05-15T09:40:11.458Z,8.50
2023-05-15T09:42:51.715Z,6.82
2023-05-15T09:45:26.118Z,9.00
2023-05-15T09:47:55.257Z,11.82
2023-05-15T09:50:46.473Z,11.07
2023-05-15T09:53:21.266Z,14.75
2023-05-15T09:55:49.941Z,17.38
2023-05-15T09:58:19.186Z,13.60
2023-05-15T10:00:49.596Z,8.32
2023-05-15T10:03:21.200Z,12.15
2023-05-15T10:05:49.402Z,11.23
2023-05-15T10:08:30.950Z,7.28
2023-05-15T10:11:01.801Z,11.25
2023-05-15T10:13:32.116Z,5.75
2023-05-15T10:16:02.399Z,7.80
2023-05-15T10:18:34.077Z,5.80
2023-05-15T10:21:04.618Z,6.10
2023-05-15T10:23:41.391Z,5.95
2023-05-15T10:26:37.351Z,6.30
2023-05-15T10:29:18.686Z,5.65
2023-05-15T10:31:49.540Z,8.35
2023-05-15T10:34:19.569Z,6.72
2023-05-15T10:36:53.634Z,5.63
2023-05-15T10:39:27.851Z,5.57
2023-05-15T10:42:02.834Z,5.13
2023-05-15T10:47:38.051Z,4.75
2023-05-15T10:50:08.010Z,5.18
2023-05-15T10:52:40.210Z,6.30
2023-05-15T10:55:56.525Z,4.10
2023-05-15T10:58:27.399Z,5.70
2023-05-15T11:00:58.684Z,5.43
2023-05-15T11:03:48.105Z,4.25
2023-05-15T11:06:29.022Z,5.00
2023-05-15T11:09:27.676Z,5.07
2023-05-15T11:12:03.503Z,7.90
2023-05-15T11:14:35.643Z,4.93
2023-05-15T11:17:12.816Z,5.72
2023-05-15T11:19:51.379Z,4.85
2023-05-15T11:22:36.338Z,3.30
2023-05-15T11:25:07.391Z,3.97
2023-05-15T11:27:42.162Z,2.45
2023-05-15T11:30:22.611Z,4.47
2023-05-15T11:33:00.276Z,2.60
2023-05-15T11:35:30.542Z,3.70
2023-05-15T11:38:11.603Z,4.38
2023-05-15T11:41:00.678Z,4.97
2023-05-15T11:43:33.718Z,5.25
2023-05-15T11:46:13.041Z,6.38
2023-05-15T11:48:49.646Z,4.13
2023-05-15T11:51:26.284Z,4.43
2023-05-15T11:53:57.966Z,4.18
2023-05-15T11:56:45.207Z,3.60
2023-05-15T11:59:40.492Z,3.80
2023-05-15T12:02:20.679Z,5.63
2023-05-15T12:04:53.475Z,4.95
2023-05-15T12:07:29.051Z,6.30
2023-05-15T12:09:58.250Z,5.05
2023-05-15T12:12:30.088Z,15.40
2023-05-15T12:15:01.710Z,32.10
2023-05-15T12:17:37.553Z,32.08
2023-05-15T12:20:12.060Z,27.40
2023-05-15T12:22:47.660Z,18.08
2023-05-15T12:25:22.715Z,9.23
2023-05-15T12:27:51.610Z,9.65
2023-05-15T12:30:22.763Z,9.60
2023-05-15T12:32:59.006Z,4.50
2023-05-15T12:35:35.295Z,5.07
2023-05-15T12:38:08.524Z,6.45
2023-05-15T12:40:43.951Z,5.57
2023-05-15T12:43:24.058Z,5.00
2023-05-15T12:46:02.517Z,5.25
2023-05-15T12:48:33.776Z,7.40
2023-05-15T12:51:07.411Z,8.50
2023-05-15T12:53:40.150Z,6.68
2023-05-15T12:56:10.687Z,7.20
2023-05-15T12:58:40.419Z,6.82
2023-05-15T13:01:18.721Z,4.72
2023-05-15T13:03:56.385Z,6.10
2023-05-15T13:06:34.766Z,5.93
2023-05-15T13:09:17.304Z,7.82
2023-05-15T13:11:45.711Z,6.55
2023-05-15T13:14:17.884Z,5.28
2023-05-15T13:16:47.701Z,5.85
2023-05-15T13:19:18.187Z,7.95
2023-05-15T13:21:51.083Z,6.68
2023-05-15T13:24:21.392Z,9.80
2023-05-15T13:26:49.629Z,6.80
2023-05-15T13:29:18.080Z,10.32
2023-05-15T13:31:47.069Z,6.63
2023-05-15T13:34:16.123Z,7.47
2023-05-15T13:36:44.723Z,7.32
2023-05-15T13:39:16.178Z,6.78
2023-05-15T13:41:44.786Z,9.07
2023-05-15T13:44:15.637Z,7.78
2023-05-15T13:46:44.430Z,11.25
2023-05-15T13:49:13.220Z,8.95
2023-05-15T13:51:41.432Z,8.63
2023-05-15T13:54:10.302Z,7.65
2023-05-15T13:56:38.919Z,8.43
2023-05-15T13:59:06.980Z,9.43
2023-05-15T14:01:35.055Z,8.75
2023-05-15T14:04:04.225Z,5.97
2023-05-15T14:06:32.762Z,8.43
2023-05-15T14:09:00.588Z,8.90
2023-05-15T14:11:28.307Z,10.65
2023-05-15T14:13:56.494Z,6.93
2023-05-15T14:16:24.428Z,5.45
2023-05-15T14:18:52.206Z,6.00
2023-05-15T14:21:23.457Z,6.15
2023-05-15T14:23:51.501Z,4.90
2023-05-15T14:26:19.382Z,7.82
2023-05-15T14:28:47.516Z,6.75
2023-05-15T14:31:15.805Z,6.53
2023-05-15T14:33:43.811Z,6.85
2023-05-15T14:36:12.686Z,4.75
2023-05-15T14:38:40.650Z,5.93
2023-05-15T14:41:08.677Z,7.45
2023-05-15T14:43:36.674Z,11.27
2023-05-15T14:46:05.330Z,7.60
2023-05-15T14:48:34.148Z,9.55
2023-05-15T14:51:02.348Z,7.00
2023-05-15T14:53:30.294Z,10.30
2023-05-15T14:55:58.822Z,8.15
2023-05-15T14:58:27.182Z,12.95
2023-05-15T15:00:55.078Z,6.07
2023-05-15T15:03:25.752Z,7.82
2023-05-15T15:05:55.803Z,7.45
2023-05-15T15:08:23.751Z,6.35
2023-05-15T15:10:52.575Z,10.52
2023-05-15T15:13:20.436Z,6.00
2023-05-15T15:15:48.584Z,5.25
2023-05-15T15:18:16.402Z,8.70
2023-05-15T15:20:44.632Z,5.55
2023-05-15T15:23:12.512Z,4.60
2023-05-15T15:25:40.506Z,7.75
2023-05-15T15:28:15.489Z,4.15
2023-05-15T15:30:43.374Z,5.80
2023-05-15T15:33:14.470Z,9.13
2023-05-15T15:35:42.350Z,5.43
2023-05-15T15:38:13.657Z,5.78
2023-05-15T15:40:45.222Z,8.15
2023-05-15T15:43:17.540Z,9.73
2023-05-15T15:45:49.826Z,14.15
2023-05-15T15:48:21.364Z,11.23
2023-05-15T15:50:55.651Z,10.38
2023-05-15T15:53:33.121Z,11.82
2023-05-15T15:56:03.454Z,9.55
2023-05-15T15:58:32.339Z,6.65
2023-05-15T16:01:02.675Z,6.10
2023-05-15T16:03:36.597Z,6.88
2023-05-15T16:06:08.767Z,5.97
2023-05-15T16:08:40.881Z,6.07
2023-05-15T16:11:09.858Z,7.60
2023-05-15T16:13:42.416Z,6.88
2023-05-15T16:16:11.640Z,6.20
2023-05-15T16:18:42.013Z,7.72
2023-05-15T16:21:13.851Z,4.55
2023-05-15T16:23:42.510Z,6.45
2023-05-15T16:26:13.970Z,4.72
2023-05-15T16:28:45.224Z,5.47
2023-05-15T16:31:19.578Z,6.55
2023-05-15T16:34:07.150Z,5.40
2023-05-15T16:36:37.917Z,4.30
2023-05-15T16:39:13.939Z,5.72
2023-05-15T16:41:46.109Z,4.63
2023-05-15T16:44:19.876Z,5.53
2023-05-15T16:46:48.323Z,5.68
2023-05-15T16:49:19.861Z,4.32
2023-05-15T16:51:48.497Z,3.92
2023-05-15T16:54:19.545Z,11.27
2023-05-15T16:56:48.658Z,6.80
2023-05-15T16:59:19.212Z,9.07
2023-05-15T17:01:49.625Z,9.50
2023-05-15T17:04:23.280Z,8.57
2023-05-15T17:06:54.217Z,14.80
2023-05-15T17:09:25.991Z,9.32
2023-05-15T17:11:56.500Z,7.55
2023-05-15T17:14:27.951Z,8.25
2023-05-15T17:16:57.704Z,5.57
2023-05-15T17:19:30.314Z,3.85
2023-05-15T17:21:58.971Z,8.52
2023-05-15T17:24:38.546Z,6.15
2023-05-15T17:27:18.880Z,6.28
2023-05-15T17:29:47.886Z,9.32
2023-05-15T17:32:19.727Z,9.32
2023-05-15T17:34:51.689Z,12.98
2023-05-15T17:37:20.349Z,8.57
2023-05-15T17:39:52.670Z,7.88
2023-05-15T17:42:28.549Z,6.53
2023-05-15T17:44:57.161Z,6.28
2023-05-15T17:47:25.855Z,6.47
2023-05-15T17:49:53.960Z,9.55
2023-05-15T17:52:26.141Z,14.10
2023-05-15T17:54:54.608Z,11.15
2023-05-15T17:57:26.777Z,9.23
2023-05-15T17:59:56.433Z,6.93
2023-05-15T18:02:26.324Z,9.35
2023-05-15T18:04:56.517Z,8.57
2023-05-15T18:07:25.308Z,6.55
2023-05-15T18:09:53.752Z,7.05
2023-05-15T18:12:22.332Z,5.78
2023-05-15T18:14:53.382Z,9.20
2023-05-15T18:17:22.129Z,8.70
2023-05-15T18:19:58.739Z,11.95
2023-05-15T18:22:29.768Z,8.55
2023-05-15T18:25:00.021Z,10.88
2023-05-15T18:27:29.813Z,12.02
2023-05-15T18:29:58.340Z,10.65
2023-05-15T18:32:28.008Z,10.52
2023-05-15T18:34:56.653Z,9.07
2023-05-15T18:37:27.105Z,11.55
2023-05-15T18:40:02.203Z,10.40
2023-05-15T18:42:31.480Z,10.20
2023-05-15T18:45:02.618Z,9.75
2023-05-15T18:47:32.129Z,11.40
2023-05-15T18:50:00.211Z,9.80
2023-05-15T18:52:28.980Z,10.07
2023-05-15T18:54:57.869Z,10.50
2023-05-15T18:57:26.412Z,10.10
2023-05-15T18:59:55.344Z,9.95
2023-05-15T19:02:25.877Z,10.65
2023-05-15T19:04:54.617Z,10.40
2023-05-15T19:07:23.703Z,9.25
2023-05-15T19:09:55.435Z,9.57
2023-05-15T19:12:24.059Z,10.57
2023-05-15T19:14:51.967Z,9.02
2023-05-15T19:17:20.736Z,9.80
2023-05-15T19:19:49.200Z,12.13
2023-05-15T19:22:18.630Z,13.93
2023-05-15T19:24:48.087Z,11.30
2023-05-15T19:27:15.901Z,11.63
2023-05-15T19:29:43.666Z,10.73
2023-05-15T19:32:11.533Z,14.63
2023-05-15T19:34:39.360Z,11.57
2023-05-15T19:37:07.479Z,11.70
2023-05-15T19:39:43.167Z,11.35
2023-05-15T19:42:11.788Z,13.18
2023-05-15T19:44:46.177Z,12.65
2023-05-15T19:47:15.132Z,14.48
2023-05-15T19:49:45.955Z,14.13
2023-05-15T19:52:14.883Z,14.50
2023-05-15T19:54:43.677Z,12.75
2023-05-15T19:57:13.515Z,7.65
2023-05-15T19:59:41.872Z,13.65
2023-05-15T20:02:11.486Z,10.82
2023-05-15T20:04:53.734Z,8.07
2023-05-15T20:07:23.629Z,11.40
2023-05-15T20:09:55.963Z,8.55
2023-05-15T20:12:27.390Z,13.90
2023-05-15T20:14:55.999Z,11.68
2023-05-15T20:17:24.699Z,12.40
2023-05-15T20:19:54.910Z,11.98
2023-05-15T20:25:06.434Z,11.93
2023-05-15T20:27:38.243Z,10.88
2023-05-15T20:30:12.409Z,12.45
2023-05-15T20:32:47.099Z,11.55
2023-05-15T22:36:34.538Z,8.85
2023-05-15T22:54:39.085Z,9.38
2023-05-15T22:57:10.971Z,9.70
2023-05-15T22:59:39.835Z,8.25
2023-05-15T23:02:12.821Z,8.80
2023-05-15T23:04:41.735Z,10.38
2023-05-15T23:07:16.334Z,8.68
2023-05-15T23:09:53.195Z,8.18
2023-05-15T23:12:30.003Z,8.45
2023-05-15T23:15:03.011Z,7.95
2023-05-15T23:17:34.052Z,7.07
2023-05-15T23:20:19.265Z,7.05
2023-05-15T23:23:02.490Z,7.47
2023-05-15T23:25:32.405Z,7.80
2023-05-15T23:28:05.235Z,7.47
2023-05-15T23:30:34.334Z,7.65
2023-05-15T23:33:09.746Z,8.07
2023-05-15T23:35:43.900Z,6.95
2023-05-15T23:38:13.656Z,6.45
2023-05-15T23:40:45.342Z,7.35
2023-05-15T23:43:20.989Z,7.45
2023-05-15T23:45:55.893Z,8.38
2023-05-15T23:48:31.909Z,6.55
2023-05-15T23:51:04.874Z,7.47
2023-05-15T23:53:38.748Z,8.18
2023-05-15T23:56:09.713Z,7.80
2023-05-15T23:58:50.704Z,7.53
